Time;durP1;ratioP1;P1;durP2;ratioP2;P2;SDS_P1;SDS_P2;PMS_P1;PMS_P2;Temp;Humidity;BMP_temperature;BMP_pressure;BME280_temperature;BME280_humidity;BME280_pressure;Samples;Min_cycle;Max_cycle;Signal;HPM_P1;HPM_P2
2021/04/12 00:00:31;;;;;;;2.53;1.13;;;3.80;99.90;;;;;;4988053;28;20223;-81
2021/04/12 00:03:21;;;;;;;1.10;0.77;;;3.80;99.90;;;;;;4987320;28;20184;-80
2021/04/12 00:06:11;;;;;;;1.43;1.17;;;3.70;99.90;;;;;;4987304;28;20688;-80
2021/04/12 00:09:01;;;;;;;0.67;0.67;;;3.60;99.90;;;;;;4987464;28;20207;-79
2021/04/12 00:11:39;;;;;;;4.67;1.23;;;3.50;99.90;;;;;;5003861;28;20192;-80
2021/04/12 00:14:17;;;;;;;1.00;0.60;;;3.60;99.90;;;;;;4988973;28;20204;-79
2021/04/12 00:16:45;;;;;;;1.43;1.33;;;3.50;99.90;;;;;;4987349;28;20591;-81
2021/04/12 00:19:54;;;;;;;0.77;0.70;;;3.60;99.90;;;;;;4988798;28;20667;-80
2021/04/12 00:22:54;;;;;;;0.80;0.73;;;3.60;99.90;;;;;;4996804;28;20239;-80
2021/04/12 00:25:39;;;;;;;0.73;0.60;;;3.60;99.90;;;;;;4990628;28;20197;-80
2021/04/12 00:28:08;;;;;;;1.10;0.80;;;3.70;99.90;;;;;;4986234;28;20204;-80
2021/04/12 00:30:47;;;;;;;2.40;0.90;;;3.70;99.90;;;;;;4986937;28;20585;-79
2021/04/12 00:33:22;;;;;;;0.63;0.63;;;3.70;99.90;;;;;;4988338;28;20748;-79
2021/04/12 00:36:00;;;;;;;0.53;0.53;;;3.70;99.90;;;;;;4988307;28;20180;-79
2021/04/12 00:38:56;;;;;;;1.00;0.73;;;3.70;99.90;;;;;;4986292;28;20231;-81
2021/04/12 00:41:37;;;;;;;0.83;0.70;;;3.70;99.90;;;;;;4984022;28;21149;-80
2021/04/12 00:44:09;;;;;;;1.27;0.80;;;3.70;99.90;;;;;;4986745;28;20196;-80
2021/04/12 00:47:03;;;;;;;0.50;0.50;;;3.70;99.90;;;;;;4985814;28;20176;-78
2021/04/12 00:49:44;;;;;;;5.97;1.33;;;3.70;99.90;;;;;;4987572;28;20245;-79
2021/04/12 00:52:38;;;;;;;1.37;1.00;;;3.70;99.90;;;;;;4986313;28;20231;-81
2021/04/12 00:55:13;;;;;;;0.70;0.70;;;3.70;99.90;;;;;;4985680;28;20207;-81
2021/04/12 00:58:13;;;;;;;0.50;0.50;;;3.70;99.90;;;;;;4985957;28;20412;-81
2021/04/12 01:01:02;;;;;;;1.10;1.10;;;3.60;99.90;;;;;;4986461;28;20180;-81
2021/04/12 01:03:32;;;;;;;1.03;0.80;;;3.60;99.90;;;;;;4985700;28;20293;-81
2021/04/12 01:06:32;;;;;;;0.77;0.77;;;3.60;99.90;;;;;;4985566;28;20185;-81
2021/04/12 01:09:26;;;;;;;0.80;0.60;;;3.60;99.90;;;;;;4985363;28;20960;-81
2021/04/12 01:12:43;;;;;;;0.80;0.80;;;3.60;99.90;;;;;;4986051;28;20173;-80
2021/04/12 01:15:46;;;;;;;0.73;0.73;;;3.60;99.90;;;;;;4974386;28;20192;-80
2021/04/12 01:18:33;;;;;;;0.83;0.73;;;3.60;99.90;;;;;;4985388;28;20211;-81
2021/04/12 01:21:36;;;;;;;2.23;0.87;;;3.60;99.90;;;;;;4985643;28;20215;-81
2021/04/12 01:24:22;;;;;;;1.33;0.90;;;3.50;99.90;;;;;;4986250;28;20188;-80
2021/04/12 01:27:12;;;;;;;0.70;0.70;;;3.50;99.90;;;;;;4985405;28;20673;-80
2021/04/12 01:29:43;;;;;;;1.03;0.70;;;3.50;99.90;;;;;;4984749;28;20207;-80
2021/04/12 01:33:03;;;;;;;0.63;0.63;;;3.40;99.90;;;;;;4984696;28;20184;-81
2021/04/12 01:35:51;;;;;;;0.63;0.63;;;3.50;99.90;;;;;;4983831;28;20711;-81
2021/04/12 01:38:16;;;;;;;0.60;0.60;;;3.40;99.90;;;;;;4968232;28;20232;-82
2021/04/12 01:41:10;;;;;;;1.23;0.73;;;3.50;99.90;;;;;;4985839;28;20188;-81
2021/04/12 01:43:54;;;;;;;0.70;0.67;;;3.50;99.90;;;;;;4986991;28;20172;-80
2021/04/12 01:46:23;;;;;;;0.77;0.73;;;3.50;99.90;;;;;;4985618;28;20221;-81
2021/04/12 01:48:48;;;;;;;0.50;0.50;;;3.50;99.90;;;;;;4984306;28;20802;-80
2021/04/12 01:51:39;;;;;;;0.83;0.83;;;3.40;99.90;;;;;;4986696;28;20266;-80
2021/04/12 01:54:10;;;;;;;2.50;0.87;;;3.50;99.90;;;;;;4984247;28;20322;-81
2021/04/12 01:56:57;;;;;;;1.77;0.93;;;3.50;99.90;;;;;;4984688;28;20177;-81
2021/04/12 01:59:23;;;;;;;0.63;0.63;;;3.50;99.90;;;;;;4990499;28;20200;-81
2021/04/12 02:02:07;;;;;;;0.80;0.80;;;3.40;99.90;;;;;;4989274;28;20199;-81
2021/04/12 02:05:07;;;;;;;0.73;0.60;;;3.40;99.90;;;;;;4989018;28;20589;-81
2021/04/12 02:07:47;;;;;;;0.80;0.80;;;3.20;99.90;;;;;;4988600;28;20179;-81
2021/04/12 02:10:31;;;;;;;1.17;0.60;;;3.20;99.90;;;;;;4990287;28;20250;-80
2021/04/12 02:13:17;;;;;;;0.80;0.70;;;3.10;99.90;;;;;;4988686;28;20188;-81
2021/04/12 02:15:57;;;;;;;0.80;0.60;;;3.20;99.90;;;;;;4988454;28;20551;-81
2021/04/12 02:18:31;;;;;;;0.67;0.60;;;3.20;99.90;;;;;;4988845;28;20215;-81
2021/04/12 02:21:26;;;;;;;2.20;0.67;;;3.20;99.90;;;;;;4988770;28;20179;-80
2021/04/12 02:23:57;;;;;;;0.73;0.73;;;3.20;99.90;;;;;;4987900;28;20630;-81
2021/04/12 02:26:42;;;;;;;1.60;0.60;;;3.20;99.90;;;;;;4988477;28;20199;-79
2021/04/12 02:29:36;;;;;;;0.83;0.67;;;3.20;99.90;;;;;;4988124;28;20212;-80
2021/04/12 02:32:17;;;;;;;0.50;0.50;;;3.20;99.90;;;;;;4988768;28;20185;-80
2021/04/12 02:34:43;;;;;;;0.40;0.33;;;3.20;99.90;;;;;;4988519;28;20196;-80
2021/04/12 02:37:24;;;;;;;0.40;0.40;;;3.20;99.90;;;;;;4990004;28;20188;-80
2021/04/12 02:40:15;;;;;;;2.90;0.53;;;3.10;99.90;;;;;;4991141;28;20204;-80
2021/04/12 02:45:30;;;;;;;0.70;0.60;;;3.10;99.90;;;;;;5011156;28;20215;-80
2021/04/12 02:48:10;;;;;;;0.60;0.60;;;3.10;99.90;;;;;;5009729;28;20733;-80
2021/04/12 02:50:53;;;;;;;0.80;0.50;;;3.20;99.90;;;;;;5008492;28;20215;-80
2021/04/12 02:53:37;;;;;;;1.23;0.50;;;3.20;99.90;;;;;;5008633;28;20211;-80
2021/04/12 02:56:36;;;;;;;0.67;0.63;;;3.20;99.90;;;;;;5010010;28;20175;-80
2021/04/12 02:59:22;;;;;;;2.07;0.80;;;3.30;99.90;;;;;;5010374;28;20211;-80
2021/04/12 03:02:10;;;;;;;0.90;0.63;;;3.20;99.90;;;;;;5010224;28;20245;-81
2021/04/12 03:04:52;;;;;;;0.77;0.77;;;3.20;99.90;;;;;;5025149;28;20537;-81
2021/04/12 03:07:37;;;;;;;0.93;0.67;;;3.20;99.90;;;;;;5009724;28;20184;-80
2021/04/12 03:10:31;;;;;;;0.53;0.50;;;3.20;99.90;;;;;;5009016;28;20223;-80
2021/04/12 03:13:13;;;;;;;2.53;0.80;;;3.20;99.90;;;;;;5010526;28;20230;-80
2021/04/12 03:15:48;;;;;;;1.00;0.60;;;3.20;99.90;;;;;;5009999;28;20282;-79
2021/04/12 03:18:28;;;;;;;0.60;0.60;;;3.10;99.90;;;;;;5009517;28;20285;-81
2021/04/12 03:21:03;;;;;;;2.20;0.70;;;3.10;99.90;;;;;;5009670;28;20180;-79
2021/04/12 03:23:59;;;;;;;0.80;0.80;;;3.10;99.90;;;;;;5010908;28;20212;-80
2021/04/12 03:26:41;;;;;;;1.90;0.50;;;3.20;99.90;;;;;;5009616;28;20234;-80
2021/04/12 03:29:13;;;;;;;0.57;0.50;;;3.20;99.90;;;;;;5010273;28;20578;-78
2021/04/12 03:31:48;;;;;;;2.60;1.13;;;3.20;99.90;;;;;;5001305;28;20553;-80
2021/04/12 03:34:22;;;;;;;1.30;0.70;;;3.20;99.90;;;;;;5009279;28;20210;-80
2021/04/12 03:36:57;;;;;;;0.83;0.73;;;3.10;99.90;;;;;;5008253;28;20198;-80
2021/04/12 03:39:28;;;;;;;0.50;0.50;;;3.10;99.90;;;;;;5011303;28;20261;-80
2021/04/12 03:42:16;;;;;;;0.50;0.50;;;3.10;99.90;;;;;;5010790;28;20183;-80
2021/04/12 03:45:07;;;;;;;0.40;0.30;;;3.20;99.90;;;;;;4973439;28;20199;-80
2021/04/12 03:48:20;;;;;;;0.87;0.70;;;3.10;99.90;;;;;;5011893;28;20188;-80
2021/04/12 03:50:54;;;;;;;3.40;0.80;;;3.00;99.90;;;;;;5010289;28;20184;-80
2021/04/12 03:53:45;;;;;;;0.50;0.50;;;3.00;99.90;;;;;;5015830;28;20768;-79
2021/04/12 03:56:48;;;;;;;1.07;0.60;;;3.00;99.90;;;;;;5010045;28;20215;-80
2021/04/12 03:59:20;;;;;;;0.83;0.60;;;3.00;99.90;;;;;;5010844;28;20210;-81
2021/04/12 04:01:56;;;;;;;3.00;0.53;;;3.00;99.90;;;;;;5009748;28;20187;-80
2021/04/12 04:04:30;;;;;;;0.63;0.63;;;3.00;99.90;;;;;;5013288;28;20666;-80
2021/04/12 04:07:26;;;;;;;1.23;0.80;;;3.00;99.90;;;;;;5011152;28;20248;-80
2021/04/12 04:10:02;;;;;;;0.57;0.57;;;2.90;99.90;;;;;;5011616;28;20213;-80
2021/04/12 04:13:05;;;;;;;1.80;1.30;;;2.90;99.90;;;;;;5010966;28;20670;-80
2021/04/12 04:15:30;;;;;;;0.80;0.80;;;2.90;99.90;;;;;;5008382;28;20575;-80
2021/04/12 04:18:08;;;;;;;0.70;0.70;;;2.90;99.90;;;;;;5009701;28;20195;-80
2021/04/12 04:20:39;;;;;;;2.63;1.40;;;2.90;99.90;;;;;;5009922;28;20192;-80
2021/04/12 04:23:17;;;;;;;1.23;1.13;;;2.80;99.90;;;;;;5009508;28;20192;-80
2021/04/12 04:25:49;;;;;;;1.20;1.10;;;2.80;99.90;;;;;;5009629;28;20274;-80
2021/04/12 04:28:33;;;;;;;1.83;1.57;;;2.90;99.90;;;;;;5009037;28;20235;-81
2021/04/12 04:31:10;;;;;;;1.53;1.37;;;2.80;99.90;;;;;;5011586;28;20202;-79
2021/04/12 04:33:52;;;;;;;0.90;0.90;;;2.80;99.90;;;;;;5009832;28;20203;-79
2021/04/12 04:36:25;;;;;;;1.00;0.90;;;2.70;99.90;;;;;;5023818;28;20274;-80
2021/04/12 04:39:12;;;;;;;1.27;1.17;;;2.80;99.90;;;;;;5026049;28;20438;-80
2021/04/12 04:42:15;;;;;;;1.00;1.00;;;2.80;99.90;;;;;;5007999;28;20183;-80
2021/04/12 04:44:53;;;;;;;1.80;1.50;;;2.90;99.90;;;;;;5008980;28;20353;-80
2021/04/12 04:47:53;;;;;;;1.40;1.17;;;2.80;99.90;;;;;;5027769;28;20570;-80
2021/04/12 04:50:48;;;;;;;1.50;1.10;;;2.90;99.90;;;;;;5009297;28;20195;-80
2021/04/12 04:53:42;;;;;;;4.40;1.57;;;2.80;99.90;;;;;;5009109;28;20309;-80
2021/04/12 04:56:25;;;;;;;1.30;1.20;;;2.80;99.90;;;;;;5009384;28;20187;-80
2021/04/12 04:59:18;;;;;;;1.60;1.23;;;2.70;99.90;;;;;;5012783;28;20203;-80
2021/04/12 05:02:03;;;;;;;1.30;0.90;;;2.80;99.90;;;;;;5011250;28;20273;-80
2021/04/12 05:04:51;;;;;;;1.63;1.13;;;2.70;99.90;;;;;;5011229;28;20183;-80
2021/04/12 05:07:32;;;;;;;1.10;1.10;;;2.70;99.90;;;;;;5009102;28;20200;-81
2021/04/12 05:10:06;;;;;;;3.17;1.30;;;2.70;99.90;;;;;;5014155;28;20580;-80
2021/04/12 05:12:56;;;;;;;3.57;1.00;;;2.70;99.90;;;;;;5009951;28;20198;-81
2021/04/12 05:15:50;;;;;;;1.07;0.97;;;2.70;99.90;;;;;;5009288;28;20270;-81
2021/04/12 05:18:50;;;;;;;1.50;1.23;;;2.90;99.90;;;;;;5008730;28;20210;-80
2021/04/12 05:21:33;;;;;;;1.00;0.90;;;2.90;99.90;;;;;;5008939;28;20179;-80
2021/04/12 05:24:24;;;;;;;4.43;1.47;;;2.90;99.90;;;;;;5007599;28;20211;-80
2021/04/12 05:27:24;;;;;;;2.07;1.87;;;2.90;99.90;;;;;;5004826;28;20193;-81
2021/04/12 05:30:27;;;;;;;1.70;1.47;;;3.00;99.90;;;;;;5008425;28;20199;-81
2021/04/12 05:33:15;;;;;;;1.30;1.20;;;3.00;99.90;;;;;;5007536;28;20191;-80
2021/04/12 05:36:02;;;;;;;0.80;0.80;;;3.10;99.90;;;;;;5008237;28;20206;-81
2021/04/12 05:39:08;;;;;;;0.90;0.77;;;3.10;99.90;;;;;;5007030;28;20213;-83
2021/04/12 05:42:05;;;;;;;1.63;1.10;;;3.10;99.90;;;;;;5004923;28;20191;-84
2021/04/12 05:44:41;;;;;;;1.33;1.23;;;3.10;99.90;;;;;;5006011;28;20227;-80
2021/04/12 05:47:17;;;;;;;1.17;1.03;;;3.20;99.90;;;;;;5006806;28;20858;-80
2021/04/12 05:50:13;;;;;;;1.00;0.90;;;3.20;99.90;;;;;;5002899;28;20199;-81
2021/04/12 05:53:06;;;;;;;1.17;1.07;;;3.30;99.90;;;;;;5003630;28;20194;-80
2021/04/12 05:56:09;;;;;;;1.40;0.90;;;3.30;99.90;;;;;;5004442;28;20194;-80
2021/04/12 05:58:58;;;;;;;0.87;0.77;;;3.50;99.90;;;;;;5004132;28;20600;-80
2021/04/12 06:01:42;;;;;;;0.90;0.83;;;3.60;99.90;;;;;;5006009;28;20207;-80
2021/04/12 06:04:20;;;;;;;1.30;1.20;;;3.60;99.90;;;;;;5002378;28;20529;-81
2021/04/12 06:07:00;;;;;;;1.50;0.93;;;3.90;99.90;;;;;;5017223;28;20650;-81
2021/04/12 06:10:02;;;;;;;1.23;1.00;;;3.90;99.90;;;;;;5000266;28;20203;-81
2021/04/12 06:12:43;;;;;;;4.17;1.50;;;4.20;99.90;;;;;;5000406;28;20199;-81
2021/04/12 06:15:27;;;;;;;2.40;1.30;;;4.40;99.90;;;;;;4998943;28;20794;-81
2021/04/12 06:18:32;;;;;;;1.30;1.17;;;4.40;99.90;;;;;;5000596;28;20242;-81
2021/04/12 06:21:31;;;;;;;2.90;1.67;;;4.40;99.90;;;;;;5000706;28;20716;-82
2021/04/12 06:23:57;;;;;;;2.40;1.20;;;4.30;99.90;;;;;;5002767;28;20187;-80
2021/04/12 06:26:41;;;;;;;1.17;1.07;;;4.40;99.90;;;;;;5002442;28;20194;-81
2021/04/12 06:29:30;;;;;;;0.83;0.83;;;4.30;99.90;;;;;;5002447;28;20207;-82
2021/04/12 06:32:05;;;;;;;1.40;0.93;;;4.20;99.90;;;;;;5019633;28;20192;-82
2021/04/12 06:34:55;;;;;;;2.27;1.30;;;4.30;99.90;;;;;;5003604;28;20206;-81
2021/04/12 06:37:42;;;;;;;2.50;1.03;;;4.30;99.90;;;;;;5003504;28;20211;-81
2021/04/12 06:40:40;;;;;;;3.00;1.20;;;4.40;99.90;;;;;;5003447;28;20743;-81
2021/04/12 06:43:24;;;;;;;1.83;1.33;;;4.70;99.90;;;;;;5020760;28;20195;-82
2021/04/12 06:46:44;;;;;;;1.53;1.30;;;4.70;99.90;;;;;;5008307;28;20258;-80
2021/04/12 06:49:41;;;;;;;1.97;1.20;;;4.60;99.90;;;;;;5007699;28;20200;-81
2021/04/12 06:52:48;;;;;;;1.43;1.07;;;4.60;99.90;;;;;;5007158;28;20234;-81
2021/04/12 06:55:20;;;;;;;0.80;0.77;;;4.70;99.90;;;;;;5007075;28;20207;-81
2021/04/12 06:58:04;;;;;;;1.17;0.83;;;4.60;99.90;;;;;;5007102;28;20207;-80
2021/04/12 07:00:36;;;;;;;1.07;0.83;;;4.50;99.90;;;;;;5007632;28;20179;-81
2021/04/12 07:03:20;;;;;;;0.83;0.73;;;4.40;99.90;;;;;;5007070;28;20230;-81
2021/04/12 07:06:07;;;;;;;1.63;1.10;;;4.40;99.90;;;;;;5007722;28;20186;-81
2021/04/12 07:09:03;;;;;;;0.90;0.90;;;4.50;99.90;;;;;;5006538;28;20257;-80
2021/04/12 07:11:57;;;;;;;1.47;1.03;;;4.50;99.90;;;;;;5006459;28;20703;-80
2021/04/12 07:15:00;;;;;;;1.13;0.67;;;4.70;99.90;;;;;;5005716;28;20200;-80
2021/04/12 07:17:54;;;;;;;1.90;1.27;;;4.70;99.90;;;;;;5006641;28;20621;-80
2021/04/12 07:20:50;;;;;;;1.77;1.07;;;4.90;99.90;;;;;;5008321;28;20717;-81
2021/04/12 07:23:53;;;;;;;1.47;1.33;;;4.90;99.90;;;;;;5006595;28;20187;-81
2021/04/12 07:26:54;;;;;;;1.10;1.00;;;5.00;99.90;;;;;;5006775;28;20602;-80
2021/04/12 07:29:22;;;;;;;1.30;0.80;;;5.10;99.90;;;;;;5006282;28;20208;-81
2021/04/12 07:32:06;;;;;;;2.40;1.50;;;5.10;99.90;;;;;;5007765;28;20286;-80
2021/04/12 07:35:05;;;;;;;0.80;0.80;;;5.20;99.90;;;;;;5006130;28;20231;-81
2021/04/12 07:37:54;;;;;;;2.83;0.80;;;5.30;99.90;;;;;;5006437;28;20639;-78
2021/04/12 07:40:43;;;;;;;0.80;0.80;;;5.30;99.90;;;;;;5005827;28;20207;-79
2021/04/12 07:43:46;;;;;;;2.70;1.03;;;5.30;99.90;;;;;;5007034;28;20258;-78
2021/04/12 07:46:22;;;;;;;1.23;1.10;;;5.40;99.90;;;;;;5006048;28;20201;-79
2021/04/12 07:49:22;;;;;;;1.20;1.03;;;5.70;99.90;;;;;;5007330;28;20234;-79
2021/04/12 07:52:22;;;;;;;1.80;1.00;;;5.90;99.90;;;;;;5007190;28;20182;-79
2021/04/12 07:55:06;;;;;;;1.80;0.60;;;6.00;99.90;;;;;;5006235;28;20656;-78
2021/04/12 07:57:56;;;;;;;1.20;1.10;;;6.20;99.90;;;;;;5006355;28;20202;-79
2021/04/12 08:00:39;;;;;;;0.80;0.60;;;6.20;99.90;;;;;;5006739;28;20187;-78
2021/04/12 08:03:13;;;;;;;1.07;0.80;;;6.30;99.90;;;;;;5003880;28;20191;-79
2021/04/12 08:06:13;;;;;;;0.70;0.70;;;6.40;99.90;;;;;;5005230;28;20175;-80
2021/04/12 08:09:13;;;;;;;1.30;0.80;;;6.60;99.90;;;;;;5005835;28;20269;-79
2021/04/12 08:11:43;;;;;;;0.80;0.73;;;6.70;99.90;;;;;;5005451;28;20175;-80
2021/04/12 08:14:30;;;;;;;0.93;0.90;;;6.50;99.90;;;;;;5004344;28;20301;-82
2021/04/12 08:17:32;;;;;;;1.43;1.07;;;6.60;99.90;;;;;;5006543;28;20180;-81
2021/04/12 08:20:29;;;;;;;1.33;0.80;;;6.50;99.90;;;;;;5002875;28;20210;-79
2021/04/12 08:23:32;;;;;;;2.63;1.30;;;6.30;99.90;;;;;;5004058;28;20171;-80
2021/04/12 08:26:13;;;;;;;0.50;0.50;;;6.50;99.90;;;;;;5003253;28;20187;-81
2021/04/12 08:29:06;;;;;;;0.60;0.60;;;6.40;99.90;;;;;;5003383;28;20811;-80
2021/04/12 08:32:10;;;;;;;0.87;0.70;;;6.30;99.90;;;;;;5001887;28;20206;-80
2021/04/12 08:34:38;;;;;;;8.67;4.07;;;6.50;99.90;;;;;;5003759;28;20286;-80
2021/04/12 08:37:34;;;;;;;2.10;1.20;;;6.80;99.90;;;;;;5005578;28;20195;-80
2021/04/12 08:40:23;;;;;;;0.63;0.50;;;7.00;99.90;;;;;;5004882;28;20244;-80
2021/04/12 08:43:03;;;;;;;2.00;0.73;;;7.10;99.90;;;;;;5020295;28;20254;-81
2021/04/12 08:45:47;;;;;;;0.60;0.60;;;7.30;99.90;;;;;;5004172;28;20274;-81
2021/04/12 08:48:50;;;;;;;1.43;1.17;;;7.80;99.90;;;;;;5002283;28;20231;-80
2021/04/12 08:51:19;;;;;;;0.60;0.60;;;7.80;99.90;;;;;;4991994;28;20202;-81
2021/04/12 08:54:12;;;;;;;1.87;1.07;;;8.10;99.90;;;;;;5002971;28;20204;-80
2021/04/12 08:57:02;;;;;;;1.60;1.17;;;8.20;99.90;;;;;;5003763;28;20183;-80
2021/04/12 09:00:05;;;;;;;1.10;0.73;;;8.20;99.90;;;;;;5005359;28;20211;-80
2021/04/12 09:02:47;;;;;;;1.47;0.47;;;8.00;99.90;;;;;;5004121;28;20305;-80
2021/04/12 09:05:51;;;;;;;1.27;0.93;;;8.00;99.90;;;;;;5020028;28;20198;-80
2021/04/12 09:09:00;;;;;;;0.30;0.30;;;8.00;99.90;;;;;;5003332;28;20681;-80
2021/04/12 09:12:02;;;;;;;1.50;0.73;;;8.30;99.90;;;;;;5003877;28;20188;-81
2021/04/12 09:15:06;;;;;;;2.17;0.97;;;8.40;99.90;;;;;;5003351;28;20261;-81
2021/04/12 09:18:03;;;;;;;0.30;0.30;;;8.60;99.90;;;;;;5005315;28;20262;-80
2021/04/12 09:20:45;;;;;;;0.97;0.40;;;8.60;99.90;;;;;;4967545;28;20699;-80
2021/04/12 09:23:27;;;;;;;1.37;0.90;;;8.80;99.90;;;;;;5003892;28;20194;-80
2021/04/12 09:26:14;;;;;;;1.40;1.10;;;8.90;99.90;;;;;;5002496;28;20190;-81
2021/04/12 09:28:58;;;;;;;1.23;0.53;;;9.00;99.90;;;;;;5003300;28;20199;-80
2021/04/12 09:31:54;;;;;;;1.07;0.60;;;8.90;99.90;;;;;;5003058;28;20183;-81
2021/04/12 09:34:42;;;;;;;1.80;0.97;;;8.50;99.90;;;;;;5003333;28;20209;-81
2021/04/12 09:37:44;;;;;;;0.73;0.70;;;8.30;99.90;;;;;;5004242;28;20180;-81
2021/04/12 09:40:41;;;;;;;0.60;0.47;;;8.50;99.90;;;;;;5004619;28;20230;-81
2021/04/12 09:43:42;;;;;;;0.70;0.70;;;8.60;99.90;;;;;;5003998;28;21110;-86
2021/04/12 09:46:25;;;;;;;1.40;0.57;;;8.80;99.90;;;;;;5004547;28;20194;-86
2021/04/12 09:49:13;;;;;;;1.03;0.40;;;9.30;99.90;;;;;;5004278;28;21209;-81
2021/04/12 09:51:48;;;;;;;0.47;0.47;;;9.40;99.90;;;;;;5002855;28;20180;-81
2021/04/12 09:54:45;;;;;;;0.47;0.47;;;9.50;99.90;;;;;;5004148;28;20252;-81
2021/04/12 09:57:42;;;;;;;0.93;0.40;;;9.60;99.90;;;;;;5004417;28;20187;-80
2021/04/12 10:00:31;;;;;;;0.43;0.40;;;9.60;99.90;;;;;;5002765;28;20302;-81
2021/04/12 10:03:17;;;;;;;0.57;0.50;;;9.10;99.90;;;;;;5004324;28;20203;-81
2021/04/12 10:06:24;;;;;;;0.50;0.50;;;8.90;99.90;;;;;;5003706;28;20249;-81
2021/04/12 10:09:28;;;;;;;2.20;0.97;;;8.80;99.90;;;;;;4980841;28;20234;-81
2021/04/12 10:12:27;;;;;;;1.07;0.60;;;9.10;99.90;;;;;;5002601;28;20187;-81
2021/04/12 10:14:52;;;;;;;1.33;0.43;;;9.10;99.90;;;;;;5002503;28;20203;-81
2021/04/12 10:17:26;;;;;;;0.93;0.50;;;8.90;99.90;;;;;;5002944;28;20258;-81
2021/04/12 10:20:02;;;;;;;0.53;0.50;;;8.90;99.90;;;;;;5006975;28;20214;-81
2021/04/12 10:22:49;;;;;;;0.93;0.53;;;9.00;99.90;;;;;;5006584;28;21123;-81
2021/04/12 10:25:22;;;;;;;0.70;0.60;;;9.00;99.90;;;;;;5006881;28;20710;-81
2021/04/12 10:27:52;;;;;;;4.70;0.80;;;9.00;99.90;;;;;;5006476;28;20724;-82
2021/04/12 10:30:25;;;;;;;0.63;0.40;;;8.90;99.90;;;;;;5005116;28;20203;-81
2021/04/12 10:33:17;;;;;;;0.40;0.40;;;8.70;99.90;;;;;;5006159;28;20198;-81
2021/04/12 10:35:50;;;;;;;0.40;0.40;;;8.80;99.90;;;;;;5005724;28;20326;-81
2021/04/12 10:38:21;;;;;;;0.57;0.53;;;8.60;99.90;;;;;;5006859;28;20218;-81
2021/04/12 10:41:17;;;;;;;0.90;0.57;;;8.60;99.90;;;;;;5005861;28;20180;-81
2021/04/12 10:43:54;;;;;;;1.47;0.80;;;8.60;99.90;;;;;;5008312;28;20195;-80
2021/04/12 10:46:24;;;;;;;1.33;0.70;;;8.60;99.90;;;;;;5006484;28;20184;-80
2021/04/12 10:48:53;;;;;;;1.43;0.60;;;8.40;99.90;;;;;;5007607;28;20200;-82
2021/04/12 10:51:49;;;;;;;0.50;0.40;;;8.60;99.90;;;;;;5006328;28;20215;-80
2021/04/12 10:54:33;;;;;;;0.20;0.20;;;8.90;99.90;;;;;;5006281;28;20965;-81
2021/04/12 10:57:02;;;;;;;0.63;0.40;;;9.10;99.90;;;;;;5006152;28;20278;-81
2021/04/12 10:59:53;;;;;;;2.40;0.60;;;9.10;99.90;;;;;;5006848;28;20235;-81
2021/04/12 11:02:42;;;;;;;0.40;0.40;;;9.20;99.90;;;;;;5007133;28;20184;-81
2021/04/12 11:05:16;;;;;;;0.37;0.30;;;9.40;99.90;;;;;;5006467;28;21097;-81
2021/04/12 11:08:14;;;;;;;0.87;0.20;;;9.70;99.90;;;;;;5023189;28;20183;-86
2021/04/12 11:11:17;;;;;;;0.40;0.30;;;9.60;99.90;;;;;;5007323;28;20278;-85
2021/04/12 11:13:47;;;;;;;0.60;0.33;;;9.70;99.90;;;;;;5006606;28;20678;-79
2021/04/12 11:16:24;;;;;;;1.10;1.00;;;9.60;99.90;;;;;;5005088;28;20274;-79
2021/04/12 11:19:17;;;;;;;0.53;0.53;;;9.90;99.90;;;;;;5022357;28;20195;-79
2021/04/12 11:21:59;;;;;;;0.97;0.73;;;9.90;99.90;;;;;;5021649;28;20184;-79
2021/04/12 11:24:49;;;;;;;2.77;1.23;;;9.50;99.90;;;;;;5022380;28;20192;-80
2021/04/12 11:27:58;;;;;;;2.23;0.77;;;9.40;99.90;;;;;;5007028;28;20179;-79
2021/04/12 11:30:47;;;;;;;1.83;1.00;;;9.60;99.90;;;;;;5021687;28;20187;-79
2021/04/12 11:33:44;;;;;;;0.50;0.50;;;9.60;99.90;;;;;;4996779;28;20204;-80
2021/04/12 11:36:12;;;;;;;0.97;0.57;;;9.50;99.90;;;;;;5002456;28;20179;-79
2021/04/12 11:38:46;;;;;;;1.27;0.83;;;9.30;99.90;;;;;;5002804;28;20668;-79
2021/04/12 11:41:18;;;;;;;0.70;0.70;;;9.40;99.90;;;;;;5002861;28;20212;-80
2021/04/12 11:43:54;;;;;;;0.97;0.63;;;9.30;99.90;;;;;;5019341;28;20199;-80
2021/04/12 11:46:28;;;;;;;0.43;0.40;;;9.10;99.90;;;;;;5004091;28;20302;-80
2021/04/12 11:49:04;;;;;;;0.33;0.33;;;9.40;99.90;;;;;;5003860;28;20282;-80
2021/04/12 11:52:20;;;;;;;0.83;0.40;;;9.80;99.90;;;;;;5003213;28;20253;-80
2021/04/12 11:54:57;;;;;;;1.17;0.40;;;10.20;99.90;;;;;;4944112;28;20222;-79
2021/04/12 11:57:32;;;;;;;0.53;0.50;;;10.10;99.90;;;;;;5003227;28;20260;-79
2021/04/12 12:00:18;;;;;;;1.00;0.80;;;9.70;99.90;;;;;;5002923;28;20507;-80
2021/04/12 12:03:08;;;;;;;2.00;0.90;;;9.40;99.90;;;;;;5007462;28;20180;-80
2021/04/12 12:05:58;;;;;;;1.20;0.93;;;9.20;99.90;;;;;;5006533;28;20175;-80
2021/04/12 12:08:41;;;;;;;0.77;0.50;;;9.00;99.90;;;;;;5006929;28;20211;-80
2021/04/12 12:11:16;;;;;;;1.57;0.60;;;9.20;99.90;;;;;;5006021;28;20709;-81
2021/04/12 12:13:51;;;;;;;1.87;1.43;;;9.00;99.90;;;;;;5007529;28;20211;-81
2021/04/12 12:16:26;;;;;;;1.13;0.97;;;9.00;99.90;;;;;;5007624;28;20758;-80
2021/04/12 12:19:00;;;;;;;3.07;1.40;;;9.00;99.90;;;;;;5023694;28;20273;-80
2021/04/12 12:21:37;;;;;;;2.50;1.50;;;9.10;99.90;;;;;;5006755;28;20186;-80
2021/04/12 12:24:34;;;;;;;1.03;0.60;;;9.20;99.90;;;;;;5006135;28;21082;-80
2021/04/12 12:27:15;;;;;;;0.40;0.40;;;9.60;99.90;;;;;;5005245;28;21203;-80
2021/04/12 12:29:51;;;;;;;0.33;0.30;;;9.70;99.90;;;;;;5005068;28;20908;-81
2021/04/12 12:32:27;;;;;;;1.60;0.30;;;9.80;99.90;;;;;;5005758;28;20183;-80
2021/04/12 12:34:56;;;;;;;0.50;0.40;;;9.80;99.90;;;;;;5006735;28;20199;-81
2021/04/12 12:38:05;;;;;;;0.70;0.67;;;10.10;99.90;;;;;;5005757;28;20183;-80
2021/04/12 12:40:47;;;;;;;4.43;1.07;;;10.50;99.90;;;;;;5005363;28;20172;-81
2021/04/12 12:43:20;;;;;;;1.77;0.77;;;10.70;99.90;;;;;;5005774;28;20195;-80
2021/04/12 12:45:47;;;;;;;0.73;0.40;;;10.60;99.90;;;;;;5006616;28;20445;-80
2021/04/12 12:48:16;;;;;;;0.63;0.27;;;10.30;99.90;;;;;;5005261;28;20681;-80
2021/04/12 12:50:53;;;;;;;0.70;0.47;;;10.10;99.90;;;;;;5004996;28;20176;-81
2021/04/12 12:53:29;;;;;;;1.60;0.40;;;10.00;99.90;;;;;;5004822;28;20218;-79
2021/04/12 12:56:04;;;;;;;0.47;0.30;;;10.10;99.90;;;;;;5004278;28;20210;-80
2021/04/12 12:58:31;;;;;;;0.83;0.40;;;10.00;99.90;;;;;;5017268;28;20207;-80
2021/04/12 13:01:01;;;;;;;0.93;0.50;;;9.90;99.90;;;;;;5002313;28;20183;-80
2021/04/12 13:03:38;;;;;;;0.40;0.40;;;9.90;99.90;;;;;;5001344;28;20644;-80
2021/04/12 13:06:29;;;;;;;0.53;0.30;;;10.20;99.90;;;;;;5000975;28;20187;-80
2021/04/12 13:08:56;;;;;;;0.30;0.30;;;10.40;99.90;;;;;;5001498;28;20192;-81
2021/04/12 13:11:44;;;;;;;0.60;0.60;;;10.60;98.10;;;;;;5002434;28;20658;-80
2021/04/12 13:14:28;;;;;;;0.20;0.20;;;10.90;98.20;;;;;;5001183;28;20204;-80
2021/04/12 13:16:58;;;;;;;0.77;0.30;;;11.00;96.70;;;;;;5001423;28;20306;-80
2021/04/12 13:19:25;;;;;;;0.30;0.30;;;11.30;96.40;;;;;;5017767;28;20204;-80
2021/04/12 13:21:59;;;;;;;0.13;0.13;;;11.20;95.70;;;;;;5001440;28;20195;-80
2021/04/12 13:24:33;;;;;;;0.30;0.13;;;11.30;95.00;;;;;;5004061;28;20247;-79
2021/04/12 13:27:16;;;;;;;0.93;0.40;;;11.40;91.30;;;;;;5020699;28;20273;-80
2021/04/12 13:30:07;;;;;;;0.43;0.30;;;11.30;91.20;;;;;;5004755;28;20216;-83
2021/04/12 13:32:48;;;;;;;0.50;0.50;;;11.20;89.30;;;;;;5004950;28;20755;-78
2021/04/12 13:35:23;;;;;;;0.73;0.40;;;11.10;90.20;;;;;;5004118;28;20199;-79
2021/04/12 13:37:48;;;;;;;0.93;0.30;;;11.30;90.90;;;;;;5020787;28;20286;-81
2021/04/12 13:40:45;;;;;;;0.20;0.20;;;11.30;92.40;;;;;;5003737;28;20184;-80
2021/04/12 13:43:13;;;;;;;0.13;0.10;;;10.90;91.20;;;;;;5005233;28;20211;-80
2021/04/12 13:45:38;;;;;;;0.57;0.37;;;10.70;91.30;;;;;;5003323;28;20194;-80
2021/04/12 13:48:05;;;;;;;0.27;0.27;;;10.70;90.60;;;;;;5005335;28;20519;-80
2021/04/12 13:51:00;;;;;;;0.20;0.20;;;10.80;89.20;;;;;;5004751;28;20619;-80
2021/04/12 13:53:45;;;;;;;0.10;0.10;;;10.90;92.90;;;;;;5003669;28;20192;-80
2021/04/12 13:56:30;;;;;;;0.63;0.60;;;11.20;90.50;;;;;;5004960;28;20175;-80
2021/04/12 13:59:04;;;;;;;0.20;0.20;;;11.40;90.70;;;;;;5003331;28;20230;-80
2021/04/12 14:01:40;;;;;;;0.60;0.40;;;11.40;90.10;;;;;;5003679;28;20182;-80
2021/04/12 14:04:18;;;;;;;0.37;0.30;;;11.50;91.00;;;;;;5020170;28;20183;-80
2021/04/12 14:06:59;;;;;;;0.67;0.40;;;11.30;91.70;;;;;;5019154;28;20186;-80
2021/04/12 14:09:35;;;;;;;0.20;0.20;;;11.30;92.20;;;;;;5005327;28;20200;-80
2021/04/12 14:12:08;;;;;;;0.20;0.20;;;11.30;92.80;;;;;;5004805;28;20186;-80
2021/04/12 14:14:46;;;;;;;11.40;1.03;;;11.00;91.40;;;;;;5004195;28;20253;-79
2021/04/12 14:17:20;;;;;;;0.20;0.20;;;10.70;92.00;;;;;;5003433;28;20363;-81
2021/04/12 14:19:51;;;;;;;1.90;0.40;;;10.40;92.70;;;;;;5003598;28;20199;-80
2021/04/12 14:22:26;;;;;;;1.10;0.53;;;10.20;93.70;;;;;;5003496;28;20180;-81
2021/04/12 14:25:08;;;;;;;0.20;0.20;;;10.30;95.70;;;;;;5003552;28;20179;-80
2021/04/12 14:27:34;;;;;;;0.40;0.40;;;10.30;95.60;;;;;;5003523;28;20203;-81
2021/04/12 14:30:02;;;;;;;0.97;0.30;;;10.50;95.40;;;;;;5020274;28;20246;-81